Time;durP1;ratioP1;P1;durP2;ratioP2;P2;SDS_P1;SDS_P2;PMS_P1;PMS_P2;Temp;Humidity;BMP_temperature;BMP_pressure;BME280_temperature;BME280_humidity;BME280_pressure;Samples;Min_cycle;Max_cycle;Signal;HPM_P1;HPM_P2
2023/08/15 00:01:59;;;;;;;8.30;4.22;;;20.30;99.90;;;;;;5128815;28;20207;-82
2023/08/15 00:04:27;;;;;;;8.65;4.32;;;20.20;99.90;;;;;;5113684;28;20195;-81
2023/08/15 00:06:54;;;;;;;7.50;4.30;;;20.20;99.90;;;;;;5114926;28;20195;-80
2023/08/15 00:09:21;;;;;;;9.35;4.55;;;20.30;99.90;;;;;;5119945;28;20203;-81
2023/08/15 00:11:49;;;;;;;9.45;4.05;;;20.30;99.90;;;;;;5108298;28;20210;-83
2023/08/15 00:14:15;;;;;;;7.70;4.30;;;20.30;99.90;;;;;;5130097;28;20195;-82
2023/08/15 00:16:43;;;;;;;6.72;4.03;;;20.30;99.90;;;;;;5133193;27;20586;-80
2023/08/15 00:19:10;;;;;;;7.47;4.07;;;20.40;99.90;;;;;;5134312;27;20230;-82
2023/08/15 00:21:37;;;;;;;6.32;4.43;;;20.50;99.90;;;;;;5134216;27;20191;-81
2023/08/15 00:24:04;;;;;;;8.55;4.70;;;20.40;99.90;;;;;;5130325;27;20206;-81
2023/08/15 00:26:32;;;;;;;9.05;4.80;;;20.50;99.90;;;;;;5116649;27;20871;-83
2023/08/15 00:29:05;;;;;;;6.72;4.35;;;20.40;99.90;;;;;;5135073;27;20190;-80
2023/08/15 00:31:31;;;;;;;10.38;5.03;;;20.50;99.90;;;;;;5135589;27;20283;-81
2023/08/15 00:33:59;;;;;;;7.35;4.57;;;20.50;99.90;;;;;;5134405;27;20543;-82
2023/08/15 00:36:25;;;;;;;6.93;4.80;;;20.50;99.90;;;;;;5131036;27;20195;-81
2023/08/15 00:38:52;;;;;;;8.13;4.97;;;20.60;99.90;;;;;;5125721;27;20222;-82
2023/08/15 00:41:19;;;;;;;11.48;5.10;;;20.60;99.90;;;;;;5134325;27;20199;-81
2023/08/15 00:43:46;;;;;;;7.75;4.70;;;20.60;99.90;;;;;;5138484;27;20187;-82
2023/08/15 00:46:14;;;;;;;8.02;5.05;;;20.60;99.90;;;;;;5142536;27;20190;-81
2023/08/15 00:48:41;;;;;;;7.80;4.93;;;20.60;99.90;;;;;;5151510;27;20202;-81
2023/08/15 00:51:09;;;;;;;11.02;5.50;;;20.60;99.90;;;;;;5117007;27;20199;-81
2023/08/15 00:53:36;;;;;;;10.45;5.68;;;20.50;99.90;;;;;;5116076;27;20186;-81
2023/08/15 00:56:04;;;;;;;11.02;6.10;;;20.50;99.90;;;;;;5136891;27;20338;-82
2023/08/15 00:58:31;;;;;;;12.88;6.50;;;20.50;99.90;;;;;;5123308;27;20218;-81
2023/08/15 01:00:58;;;;;;;9.40;6.07;;;20.50;99.90;;;;;;5135618;27;20666;-83
2023/08/15 01:03:25;;;;;;;9.55;5.93;;;20.40;99.90;;;;;;5135866;27;20252;-81
2023/08/15 01:05:54;;;;;;;10.45;6.25;;;20.40;99.90;;;;;;5125400;27;20209;-81
2023/08/15 01:08:30;;;;;;;8.15;5.35;;;20.40;99.90;;;;;;5100715;28;20604;-81
2023/08/15 01:11:17;;;;;;;7.35;5.45;;;20.40;99.90;;;;;;5120144;27;20261;-81
2023/08/15 01:13:51;;;;;;;7.88;5.78;;;20.40;99.90;;;;;;5155211;27;20199;-80
2023/08/15 01:16:24;;;;;;;9.00;5.45;;;20.40;99.90;;;;;;5149205;27;20196;-80
2023/08/15 01:19:01;;;;;;;8.88;5.30;;;20.30;99.90;;;;;;5116899;28;20234;-79
2023/08/15 01:21:36;;;;;;;9.55;5.70;;;20.30;99.90;;;;;;5081532;28;20211;-81
2023/08/15 01:24:05;;;;;;;10.35;5.78;;;20.30;99.90;;;;;;5080124;28;20247;-80
2023/08/15 01:26:32;;;;;;;7.38;5.30;;;20.30;99.90;;;;;;5092301;28;20250;-81
2023/08/15 01:28:59;;;;;;;8.98;6.30;;;20.30;99.90;;;;;;5093142;28;20212;-81
2023/08/15 01:31:36;;;;;;;10.82;6.05;;;20.30;99.90;;;;;;5091257;28;20264;-81
2023/08/15 01:34:12;;;;;;;10.82;5.72;;;20.30;99.90;;;;;;5091891;28;20210;-81
2023/08/15 01:36:49;;;;;;;8.38;5.78;;;20.30;99.90;;;;;;5090524;28;20203;-81
2023/08/15 01:39:22;;;;;;;9.60;5.45;;;20.30;99.90;;;;;;5091189;28;20231;-80
2023/08/15 01:41:52;;;;;;;7.15;4.88;;;20.30;99.90;;;;;;5095060;28;20228;-80
2023/08/15 01:44:20;;;;;;;8.52;5.32;;;20.30;99.90;;;;;;5091998;28;20204;-81
2023/08/15 01:46:47;;;;;;;7.68;5.68;;;20.30;99.90;;;;;;5088101;28;20284;-80
2023/08/15 01:49:14;;;;;;;8.50;5.55;;;20.30;99.90;;;;;;5089610;28;20204;-81
2023/08/15 01:51:42;;;;;;;8.25;5.43;;;20.20;99.90;;;;;;5089972;28;20295;-81
2023/08/15 01:54:08;;;;;;;8.45;5.82;;;20.20;99.90;;;;;;5096588;28;20263;-80
2023/08/15 01:56:35;;;;;;;8.10;5.72;;;20.20;99.90;;;;;;5092508;28;20231;-80
2023/08/15 01:59:02;;;;;;;6.68;4.80;;;20.20;99.90;;;;;;5091184;28;20246;-81
2023/08/15 02:01:29;;;;;;;9.18;5.93;;;20.20;99.90;;;;;;5091321;28;20204;-81
2023/08/15 02:03:56;;;;;;;8.38;5.65;;;20.20;99.90;;;;;;5090801;28;20290;-81
2023/08/15 02:06:23;;;;;;;9.15;6.00;;;20.20;99.90;;;;;;5091438;28;20210;-82
2023/08/15 02:08:50;;;;;;;8.50;5.05;;;20.20;99.90;;;;;;5090972;28;20219;-80
2023/08/15 02:11:17;;;;;;;8.27;5.20;;;20.20;99.90;;;;;;5081196;28;20329;-80
2023/08/15 02:13:44;;;;;;;9.02;6.03;;;20.30;99.90;;;;;;5090676;28;20226;-81
2023/08/15 02:16:11;;;;;;;10.05;5.80;;;20.20;99.90;;;;;;5089643;28;20714;-81
2023/08/15 02:18:38;;;;;;;6.93;5.28;;;20.20;99.90;;;;;;5115233;27;20325;-80
2023/08/15 02:21:08;;;;;;;7.47;5.28;;;20.20;99.90;;;;;;5125133;27;20214;-82
2023/08/15 02:23:35;;;;;;;10.27;6.00;;;20.20;99.90;;;;;;5131334;27;20218;-81
2023/08/15 02:26:02;;;;;;;10.85;5.65;;;20.20;99.90;;;;;;5131850;27;20210;-81
2023/08/15 02:28:31;;;;;;;10.05;6.20;;;20.30;99.90;;;;;;5130953;27;20215;-82
2023/08/15 02:30:57;;;;;;;9.00;5.50;;;20.30;99.90;;;;;;5105762;27;20194;-81
2023/08/15 02:33:24;;;;;;;9.70;5.80;;;20.30;99.90;;;;;;5129452;27;20634;-81
2023/08/15 02:35:52;;;;;;;6.22;5.28;;;20.30;99.90;;;;;;5129854;27;20206;-80
2023/08/15 02:38:19;;;;;;;7.82;5.72;;;20.40;99.90;;;;;;5115159;27;20279;-83
2023/08/15 02:40:47;;;;;;;7.32;4.90;;;20.30;99.90;;;;;;5122281;27;20227;-81
2023/08/15 02:43:14;;;;;;;10.50;4.95;;;20.30;99.90;;;;;;5128512;27;20215;-81
2023/08/15 02:45:41;;;;;;;8.07;5.05;;;20.20;99.90;;;;;;5131670;27;20195;-81
2023/08/15 02:48:08;;;;;;;9.55;5.00;;;20.20;99.90;;;;;;5125913;27;20203;-81
2023/08/15 02:50:35;;;;;;;8.10;5.18;;;20.20;99.90;;;;;;5122704;27;20246;-81
2023/08/15 02:53:02;;;;;;;10.43;5.55;;;20.30;99.90;;;;;;5131106;27;20210;-81
2023/08/15 02:55:29;;;;;;;5.55;4.95;;;20.30;99.90;;;;;;5131126;27;20615;-80
2023/08/15 02:57:56;;;;;;;8.10;4.82;;;20.40;99.90;;;;;;5111194;27;20214;-80
2023/08/15 03:00:23;;;;;;;7.70;4.93;;;20.40;99.90;;;;;;5131055;27;20269;-82
2023/08/15 03:02:50;;;;;;;7.72;4.60;;;20.50;99.90;;;;;;5131997;27;20203;-82
2023/08/15 03:05:16;;;;;;;8.13;5.13;;;20.50;99.90;;;;;;5130101;27;20221;-80
2023/08/15 03:07:44;;;;;;;7.65;4.75;;;20.50;99.90;;;;;;5129699;27;20190;-80
2023/08/15 03:10:11;;;;;;;9.02;5.20;;;20.50;99.90;;;;;;5122867;28;20214;-81
2023/08/15 03:12:38;;;;;;;10.98;5.38;;;20.50;99.90;;;;;;5131135;27;20210;-81
2023/08/15 03:15:05;;;;;;;11.15;5.40;;;20.50;99.90;;;;;;5129914;27;20191;-81
2023/08/15 03:17:34;;;;;;;8.40;5.00;;;20.50;99.90;;;;;;5127725;28;20729;-80
2023/08/15 03:20:00;;;;;;;9.20;4.95;;;20.50;99.90;;;;;;5128530;28;20226;-82
2023/08/15 03:22:28;;;;;;;8.18;5.65;;;20.40;99.90;;;;;;5131563;28;20190;-81
2023/08/15 03:24:57;;;;;;;9.77;5.65;;;20.40;99.90;;;;;;5116529;28;20206;-81
2023/08/15 03:27:24;;;;;;;9.27;5.47;;;20.40;99.90;;;;;;5129101;28;20301;-80
2023/08/15 03:29:51;;;;;;;8.93;5.53;;;20.30;99.90;;;;;;5111292;28;20342;-81
2023/08/15 03:32:18;;;;;;;9.23;5.43;;;20.30;99.90;;;;;;5128209;28;20298;-78
2023/08/15 03:34:45;;;;;;;9.32;5.05;;;20.30;99.90;;;;;;5118469;28;20239;-80
2023/08/15 03:37:12;;;;;;;11.23;5.53;;;20.20;99.90;;;;;;5130825;28;20202;-80
2023/08/15 03:39:39;;;;;;;9.07;5.20;;;20.20;99.90;;;;;;5125258;28;20230;-81
2023/08/15 03:42:06;;;;;;;10.80;5.53;;;20.10;99.90;;;;;;5108694;28;20215;-80
2023/08/15 03:44:33;;;;;;;8.35;5.10;;;20.10;99.90;;;;;;5128373;28;20259;-81
2023/08/15 03:47:00;;;;;;;10.48;5.22;;;20.10;99.90;;;;;;5128443;28;20658;-81
2023/08/15 03:49:27;;;;;;;7.50;4.50;;;20.00;99.90;;;;;;5130817;27;20202;-81
2023/08/15 03:51:53;;;;;;;8.70;4.90;;;20.00;99.90;;;;;;5114355;27;20658;-83
2023/08/15 03:54:20;;;;;;;10.68;4.55;;;19.90;99.90;;;;;;5131896;27;20296;-81
2023/08/15 03:56:48;;;;;;;10.07;4.95;;;19.90;99.90;;;;;;5125588;27;20222;-81
2023/08/15 03:59:15;;;;;;;9.52;4.50;;;19.90;99.90;;;;;;5120129;27;20211;-81
2023/08/15 04:01:42;;;;;;;6.65;4.75;;;19.90;99.90;;;;;;5134369;27;20206;-82
2023/08/15 04:04:10;;;;;;;15.02;5.13;;;19.80;99.90;;;;;;5134510;27;20194;-81
2023/08/15 04:06:37;;;;;;;10.50;5.10;;;19.80;99.90;;;;;;5125006;27;20211;-80
2023/08/15 04:09:04;;;;;;;9.45;4.93;;;19.70;99.90;;;;;;5121444;27;20207;-81
2023/08/15 04:11:31;;;;;;;8.98;4.82;;;19.70;99.90;;;;;;5133508;27;20229;-81
2023/08/15 04:13:58;;;;;;;8.05;4.40;;;19.60;99.90;;;;;;5131104;27;20207;-81
2023/08/15 04:16:25;;;;;;;7.28;4.40;;;19.60;99.90;;;;;;5122391;27;20209;-81
2023/08/15 04:18:52;;;;;;;8.27;4.30;;;19.70;99.90;;;;;;5131645;27;20241;-82
2023/08/15 04:21:19;;;;;;;7.10;4.18;;;19.50;99.90;;;;;;5126002;27;20225;-80
2023/08/15 04:23:46;;;;;;;7.57;4.15;;;19.50;99.90;;;;;;5121848;27;20202;-80
2023/08/15 04:26:13;;;;;;;7.05;4.10;;;19.40;99.90;;;;;;5124004;27;20218;-82
2023/08/15 04:28:39;;;;;;;7.65;4.35;;;19.40;99.90;;;;;;5119848;27;20205;-82
2023/08/15 04:31:06;;;;;;;8.30;4.20;;;19.40;99.90;;;;;;5134724;27;20202;-81
2023/08/15 04:33:33;;;;;;;6.45;4.00;;;19.30;99.90;;;;;;5130678;27;20260;-80
2023/08/15 04:36:00;;;;;;;7.30;4.18;;;19.20;99.90;;;;;;5126178;27;20251;-81
2023/08/15 04:38:27;;;;;;;7.53;4.03;;;19.10;99.90;;;;;;5120306;27;20213;-82
2023/08/15 04:40:54;;;;;;;6.60;4.03;;;19.10;99.90;;;;;;5128804;27;20576;-79
2023/08/15 04:43:24;;;;;;;8.88;4.00;;;19.10;99.90;;;;;;5113918;27;20222;-83
2023/08/15 04:45:51;;;;;;;7.30;4.53;;;19.10;99.90;;;;;;5127827;27;20274;-81
2023/08/15 04:48:18;;;;;;;6.68;3.72;;;19.00;99.90;;;;;;5112256;27;20289;-80
2023/08/15 04:50:45;;;;;;;9.38;4.20;;;19.00;99.90;;;;;;5127638;27;20210;-81
2023/08/15 04:53:11;;;;;;;7.90;3.83;;;19.00;99.90;;;;;;5133311;27;20243;-81
2023/08/15 04:55:38;;;;;;;5.50;3.92;;;19.00;99.90;;;;;;5133237;27;20666;-81
2023/08/15 04:58:07;;;;;;;8.38;3.65;;;18.90;99.90;;;;;;5127364;27;20264;-82
2023/08/15 05:00:35;;;;;;;9.45;4.43;;;18.90;99.90;;;;;;5131004;27;20219;-81
2023/08/15 05:03:01;;;;;;;8.70;4.10;;;18.80;99.90;;;;;;5119670;27;20202;-80
2023/08/15 05:05:28;;;;;;;9.20;4.40;;;18.90;99.90;;;;;;5127393;27;20252;-80
2023/08/15 05:07:55;;;;;;;9.50;4.80;;;18.80;99.90;;;;;;5128337;27;20191;-80
2023/08/15 05:10:22;;;;;;;6.10;4.38;;;18.80;99.90;;;;;;5129993;27;20210;-81
2023/08/15 05:12:49;;;;;;;7.82;4.38;;;18.80;99.90;;;;;;5132317;27;20294;-81
2023/08/15 05:15:16;;;;;;;6.38;4.25;;;18.80;99.90;;;;;;5113991;27;20607;-80
2023/08/15 05:17:43;;;;;;;10.43;5.28;;;18.90;99.90;;;;;;5127918;27;20214;-79
2023/08/15 05:20:12;;;;;;;9.48;5.18;;;18.80;99.90;;;;;;5129771;27;20226;-82
2023/08/15 05:22:39;;;;;;;8.02;4.68;;;18.80;99.90;;;;;;5114640;27;20572;-81
2023/08/15 05:25:06;;;;;;;10.07;5.45;;;18.80;99.90;;;;;;5127460;27;20203;-80
2023/08/15 05:27:33;;;;;;;8.15;4.40;;;18.80;99.90;;;;;;5131578;27;20218;-80
2023/08/15 05:30:00;;;;;;;10.10;5.10;;;18.80;99.90;;;;;;5131069;27;20259;-80
2023/08/15 05:32:26;;;;;;;10.88;4.80;;;18.80;99.90;;;;;;5132158;27;20213;-80
2023/08/15 05:34:53;;;;;;;10.32;5.22;;;18.80;99.90;;;;;;5107872;27;20222;-81
2023/08/15 05:37:20;;;;;;;8.35;5.05;;;18.70;99.90;;;;;;5131975;27;20214;-81
2023/08/15 05:39:48;;;;;;;9.82;5.30;;;18.80;99.90;;;;;;5129387;27;20203;-84
2023/08/15 05:42:17;;;;;;;9.93;5.20;;;18.80;99.90;;;;;;5127484;27;20215;-81
2023/08/15 05:44:46;;;;;;;10.65;5.10;;;18.90;99.90;;;;;;5130492;27;20197;-83
2023/08/15 05:47:13;;;;;;;11.32;5.45;;;18.90;99.90;;;;;;5120972;27;20210;-81
2023/08/15 05:49:41;;;;;;;8.75;5.18;;;19.00;99.90;;;;;;5124174;27;20662;-83
2023/08/15 05:52:08;;;;;;;6.55;4.60;;;19.00;99.90;;;;;;5131338;27;20610;-81
2023/08/15 05:54:35;;;;;;;8.55;4.80;;;19.00;99.90;;;;;;5113158;27;20302;-82
2023/08/15 05:57:02;;;;;;;8.20;4.78;;;19.10;99.90;;;;;;5131725;27;20284;-82
2023/08/15 05:59:29;;;;;;;11.20;4.85;;;19.10;99.90;;;;;;5130678;27;20919;-82
2023/08/15 06:01:58;;;;;;;9.45;4.78;;;19.20;99.90;;;;;;5132116;27;20701;-82
2023/08/15 06:04:25;;;;;;;7.90;4.55;;;19.10;99.90;;;;;;5130178;27;20194;-82
2023/08/15 06:06:52;;;;;;;15.75;5.10;;;19.20;99.90;;;;;;5118501;27;20211;-82
2023/08/15 06:09:18;;;;;;;16.33;4.55;;;19.30;99.90;;;;;;5129885;27;20206;-81
2023/08/15 06:11:45;;;;;;;8.88;3.83;;;19.50;99.90;;;;;;5123414;27;20639;-82
2023/08/15 06:14:12;;;;;;;7.28;3.30;;;20.60;99.90;;;;;;5121941;27;20209;-82
2023/08/15 06:16:39;;;;;;;7.47;3.50;;;21.30;99.90;;;;;;5125175;27;20221;-81
2023/08/15 06:19:06;;;;;;;7.10;2.92;;;;;;;;;;5118606;27;20226;-82
2023/08/15 06:21:33;;;;;;;6.68;3.25;;;23.40;99.90;;;;;;5114069;27;20685;-81
2023/08/15 06:24:00;;;;;;;5.38;2.38;;;24.10;99.90;;;;;;5132832;27;20203;-79
2023/08/15 06:26:27;;;;;;;6.07;2.58;;;24.90;99.90;;;;;;5131168;27;20217;-82
2023/08/15 06:28:53;;;;;;;9.82;2.75;;;25.30;99.90;;;;;;5131719;27;20210;-82
2023/08/15 06:31:21;;;;;;;5.88;2.40;;;25.80;99.90;;;;;;5115169;27;20799;-82
2023/08/15 06:33:47;;;;;;;7.35;2.80;;;26.40;99.90;;;;;;5131451;27;20198;-82
2023/08/15 06:36:14;;;;;;;6.60;2.55;;;26.80;99.90;;;;;;5124151;27;20195;-86
2023/08/15 06:38:44;;;;;;;7.07;2.30;;;27.50;99.90;;;;;;5165698;22;20239;-90
2023/08/15 06:41:44;;;;;;;5.38;2.22;;;28.00;99.90;;;;;;5104789;28;20219;-89
2023/08/15 06:44:18;;;;;;;4.07;2.20;;;28.50;99.90;;;;;;5099555;28;20306;-87
2023/08/15 06:46:46;;;;;;;3.15;2.05;;;28.90;99.90;;;;;;5102611;28;20216;-90
2023/08/15 06:49:14;;;;;;;5.05;2.42;;;29.00;99.90;;;;;;5081059;28;20240;-89
2023/08/15 06:51:42;;;;;;;4.65;2.15;;;29.40;99.90;;;;;;5093178;28;20659;-87
2023/08/15 06:54:09;;;;;;;4.93;2.10;;;29.50;99.90;;;;;;5102993;28;20206;-90
2023/08/15 06:56:43;;;;;;;4.57;2.35;;;29.50;99.90;;;;;;5085096;28;20194;-89
2023/08/15 06:59:12;;;;;;;3.70;1.83;;;29.90;99.90;;;;;;5094767;28;20238;-92
2023/08/15 07:01:48;;;;;;;5.97;2.10;;;30.00;99.90;;;;;;5087844;28;20226;-88
2023/08/15 07:04:15;;;;;;;7.13;1.98;;;30.30;99.90;;;;;;5097838;28;20318;-85
2023/08/15 07:06:42;;;;;;;6.18;2.53;;;30.30;99.90;;;;;;5117449;28;20980;-86
2023/08/15 07:09:12;;;;;;;4.10;1.50;;;30.20;99.90;;;;;;5094519;28;20211;-85
2023/08/15 07:11:39;;;;;;;3.92;1.92;;;30.50;99.90;;;;;;5116382;28;20244;-87
2023/08/15 07:14:06;;;;;;;7.18;2.10;;;30.70;99.90;;;;;;5117431;28;20198;-88
2023/08/15 07:16:36;;;;;;;3.25;1.67;;;30.80;99.90;;;;;;5093868;28;20213;-87
2023/08/15 07:19:07;;;;;;;6.78;1.92;;;30.90;99.90;;;;;;5091159;28;20198;-89
2023/08/15 07:21:36;;;;;;;5.88;1.90;;;31.00;99.90;;;;;;5101985;28;20325;-87
2023/08/15 07:24:04;;;;;;;4.43;2.42;;;30.70;99.90;;;;;;5100011;28;20290;-89
2023/08/15 07:26:31;;;;;;;6.95;2.33;;;30.50;99.90;;;;;;5093838;28;20763;-86
2023/08/15 07:28:58;;;;;;;6.05;1.65;;;30.50;99.90;;;;;;5112695;28;20252;-86
2023/08/15 07:31:25;;;;;;;7.25;2.25;;;30.10;99.90;;;;;;5097434;28;20195;-86
2023/08/15 07:33:52;;;;;;;3.80;1.88;;;30.10;99.90;;;;;;5103294;28;20230;-85
2023/08/15 07:36:19;;;;;;;5.95;1.83;;;29.90;99.90;;;;;;5112664;28;20744;-87
2023/08/15 07:38:46;;;;;;;5.00;1.63;;;30.00;99.90;;;;;;5112404;28;20253;-88
2023/08/15 07:41:13;;;;;;;4.72;2.13;;;30.00;99.90;;;;;;5092760;28;20314;-86
2023/08/15 07:43:40;;;;;;;2.65;1.65;;;29.90;99.90;;;;;;5092097;28;20206;-86
2023/08/15 07:46:06;;;;;;;3.20;1.88;;;30.00;99.90;;;;;;5074229;28;20211;-87
2023/08/15 07:48:35;;;;;;;3.70;2.00;;;29.80;99.90;;;;;;5078700;28;20211;-87
2023/08/15 07:51:03;;;;;;;6.47;2.35;;;29.60;99.90;;;;;;5091329;28;20318;-87
2023/08/15 07:53:30;;;;;;;4.63;2.10;;;29.50;99.90;;;;;;5073744;28;20229;-87
2023/08/15 07:55:57;;;;;;;4.05;2.10;;;29.60;99.90;;;;;;5091278;28;20295;-86
2023/08/15 07:58:24;;;;;;;8.07;2.33;;;29.70;99.90;;;;;;5073622;28;20219;-87
2023/08/15 08:00:52;;;;;;;3.75;2.60;;;29.90;99.90;;;;;;5091935;28;20251;-88
2023/08/15 08:03:19;;;;;;;3.85;2.20;;;29.90;99.90;;;;;;5091885;28;20223;-89
2023/08/15 08:05:46;;;;;;;5.90;2.70;;;29.70;99.90;;;;;;5073365;28;20211;-88
2023/08/15 08:08:17;;;;;;;3.35;2.40;;;28.90;99.90;;;;;;5092577;28;20238;-86
2023/08/15 08:10:46;;;;;;;4.07;2.25;;;28.50;99.90;;;;;;5079700;28;20238;-86
2023/08/15 08:13:16;;;;;;;4.72;2.08;;;28.40;99.90;;;;;;5073913;28;20231;-85
2023/08/15 08:15:46;;;;;;;5.78;2.65;;;28.60;99.90;;;;;;5091493;28;20841;-89
2023/08/15 08:18:13;;;;;;;4.35;2.30;;;28.70;99.90;;;;;;5073266;28;20204;-87
2023/08/15 08:20:40;;;;;;;5.63;2.53;;;29.00;99.90;;;;;;5073217;28;20236;-88
2023/08/15 08:23:08;;;;;;;6.32;2.88;;;29.20;99.90;;;;;;5083307;28;20253;-87
2023/08/15 08:25:36;;;;;;;8.57;2.88;;;29.40;99.90;;;;;;5072742;28;20240;-89
2023/08/15 08:28:03;;;;;;;4.90;3.13;;;29.20;99.90;;;;;;5072992;28;20692;-87
2023/08/15 08:30:30;;;;;;;5.20;2.38;;;28.90;99.90;;;;;;5089705;28;20196;-85
2023/08/15 08:32:58;;;;;;;4.82;2.08;;;28.80;99.90;;;;;;5090306;28;20245;-87
2023/08/15 08:35:25;;;;;;;5.13;2.30;;;28.60;99.90;;;;;;5090631;28;20215;-85
2023/08/15 08:37:52;;;;;;;7.35;2.95;;;28.30;99.90;;;;;;5072255;28;20207;-87
2023/08/15 08:40:20;;;;;;;4.93;2.40;;;27.70;99.90;;;;;;5069369;28;20777;-86
2023/08/15 08:42:47;;;;;;;5.88;2.10;;;27.10;99.90;;;;;;5083444;28;20212;-86
2023/08/15 08:45:14;;;;;;;5.20;2.30;;;26.80;99.90;;;;;;5089996;28;20627;-86
2023/08/15 08:47:45;;;;;;;6.03;2.22;;;26.40;99.90;;;;;;5090590;28;20212;-85
2023/08/15 08:50:13;;;;;;;4.22;2.33;;;26.20;99.90;;;;;;5087678;28;20210;-87
2023/08/15 08:52:41;;;;;;;6.25;3.00;;;26.20;99.90;;;;;;5090718;28;20212;-86
2023/08/15 08:55:11;;;;;;;6.22;2.35;;;26.20;99.90;;;;;;5071800;28;20199;-85
2023/08/15 08:57:42;;;;;;;5.18;2.45;;;26.30;99.90;;;;;;5072860;28;20228;-86
2023/08/15 09:00:12;;;;;;;8.73;2.67;;;26.20;99.90;;;;;;5073243;28;20336;-87
2023/08/15 09:02:40;;;;;;;6.20;2.72;;;26.40;99.90;;;;;;5090649;28;20296;-84
2023/08/15 09:05:09;;;;;;;5.90;3.10;;;26.70;99.90;;;;;;5073333;28;20208;-86
2023/08/15 09:07:36;;;;;;;3.55;2.33;;;26.90;99.90;;;;;;5097917;28;20223;-85
2023/08/15 09:10:06;;;;;;;5.43;2.25;;;27.20;99.90;;;;;;5092066;28;20241;-88
2023/08/15 09:12:36;;;;;;;5.00;2.40;;;27.50;99.90;;;;;;5075551;28;20220;-85
2023/08/15 09:15:07;;;;;;;6.78;2.50;;;27.80;99.90;;;;;;5100119;28;20214;-88
2023/08/15 09:17:35;;;;;;;5.32;2.42;;;27.80;99.90;;;;;;5079846;28;20242;-87
2023/08/15 09:20:16;;;;;;;5.78;2.47;;;27.70;99.90;;;;;;5097641;28;20346;-85
2023/08/15 09:22:47;;;;;;;4.57;2.47;;;28.10;99.90;;;;;;5095981;28;20223;-87
2023/08/15 09:25:17;;;;;;;4.35;2.08;;;28.30;99.90;;;;;;5097413;28;20225;-85
2023/08/15 09:27:45;;;;;;;4.38;2.40;;;28.50;99.90;;;;;;5096752;28;20407;-87
2023/08/15 09:30:17;;;;;;;6.18;2.38;;;28.30;99.90;;;;;;5079605;28;20195;-86
2023/08/15 09:32:47;;;;;;;6.55;2.40;;;28.50;99.90;;;;;;5077072;28;20311;-92
2023/08/15 09:35:20;;;;;;;6.35;2.28;;;28.50;99.90;;;;;;5083027;28;20203;-86
2023/08/15 09:37:54;;;;;;;5.88;2.60;;;28.60;99.90;;;;;;5076962;28;20834;-90
2023/08/15 09:40:28;;;;;;;5.35;2.40;;;28.60;99.90;;;;;;5076848;28;20569;-90
2023/08/15 09:43:02;;;;;;;5.53;2.42;;;28.60;99.90;;;;;;5066693;28;20259;-86
2023/08/15 09:45:29;;;;;;;5.57;2.20;;;28.30;99.90;;;;;;5061758;28;20651;-87
2023/08/15 09:47:57;;;;;;;4.90;2.58;;;28.10;99.90;;;;;;5073247;28;20208;-87
2023/08/15 09:50:28;;;;;;;7.72;2.38;;;28.00;99.90;;;;;;5064624;28;20283;-88
2023/08/15 09:53:04;;;;;;;5.75;2.53;;;27.90;99.90;;;;;;5074392;28;20197;-90
2023/08/15 09:55:41;;;;;;;5.10;2.13;;;27.70;99.90;;;;;;5070349;28;20610;-88
2023/08/15 09:58:16;;;;;;;8.07;2.72;;;27.50;99.90;;;;;;5075153;28;20531;-88
2023/08/15 10:00:51;;;;;;;5.97;2.40;;;27.10;99.90;;;;;;5067295;28;20211;-90
2023/08/15 10:03:32;;;;;;;5.30;2.42;;;27.00;99.90;;;;;;5073921;28;20221;-91
2023/08/15 10:06:08;;;;;;;4.97;2.47;;;27.00;99.90;;;;;;5099102;28;20231;-92
2023/08/15 10:08:40;;;;;;;4.07;2.13;;;27.00;99.90;;;;;;5079259;28;20214;-87
2023/08/15 10:11:11;;;;;;;5.25;2.50;;;27.10;99.90;;;;;;5076832;28;20239;-85
2023/08/15 10:13:39;;;;;;;5.03;2.30;;;27.00;99.90;;;;;;5089614;28;20792;-88
2023/08/15 10:16:08;;;;;;;6.93;2.67;;;26.80;99.90;;;;;;5081251;28;20287;-90
2023/08/15 10:18:35;;;;;;;6.35;3.10;;;26.70;99.90;;;;;;5116089;22;20234;-79
2023/08/15 10:21:02;;;;;;;6.80;2.50;;;26.70;99.90;;;;;;5122472;22;20234;-79
2023/08/15 10:23:35;;;;;;;4.82;2.40;;;26.60;99.90;;;;;;5115823;28;20217;-81
2023/08/15 10:26:02;;;;;;;5.63;2.45;;;26.70;99.90;;;;;;5106821;28;20227;-80
2023/08/15 10:28:33;;;;;;;5.00;2.63;;;26.90;99.90;;;;;;5094096;28;20223;-81
2023/08/15 10:31:00;;;;;;;7.07;2.70;;;27.00;99.90;;;;;;5110165;28;20275;-80
2023/08/15 10:33:31;;;;;;;6.28;2.63;;;26.90;99.90;;;;;;5103912;28;20214;-82
2023/08/15 10:35:58;;;;;;;3.70;2.83;;;27.00;99.90;;;;;;5099882;28;20204;-82
2023/08/15 10:38:39;;;;;;;5.57;2.53;;;26.90;99.90;;;;;;5089719;28;20199;-84
2023/08/15 10:41:17;;;;;;;5.57;2.83;;;27.10;99.90;;;;;;5084398;28;20655;-82
2023/08/15 10:43:51;;;;;;;4.85;2.40;;;27.30;99.90;;;;;;5109040;28;20264;-82
2023/08/15 10:46:29;;;;;;;5.38;2.70;;;27.50;99.90;;;;;;5107382;28;20210;-81
2023/08/15 10:49:01;;;;;;;4.53;2.85;;;27.60;99.90;;;;;;5105398;28;20229;-79
2023/08/15 10:51:41;;;;;;;2.90;2.55;;;27.50;99.90;;;;;;5116460;27;20458;-80
2023/08/15 10:54:16;;;;;;;4.68;2.40;;;27.60;99.90;;;;;;5104135;28;20218;-81
2023/08/15 10:56:43;;;;;;;7.38;3.30;;;27.80;99.90;;;;;;5110403;28;20269;-81
2023/08/15 10:59:13;;;;;;;3.70;2.75;;;28.10;99.90;;;;;;5112127;28;20214;-81
2023/08/15 11:01:41;;;;;;;8.07;3.33;;;28.10;99.90;;;;;;5091829;28;20585;-82
2023/08/15 11:04:17;;;;;;;5.53;3.00;;;28.20;99.90;;;;;;5097066;28;20275;-83
2023/08/15 11:06:48;;;;;;;7.07;3.83;;;28.20;99.90;;;;;;5089835;28;20206;-83
2023/08/15 11:09:16;;;;;;;5.90;2.97;;;28.20;99.90;;;;;;5102586;28;20203;-82
2023/08/15 11:11:45;;;;;;;5.90;3.53;;;28.40;99.90;;;;;;5100233;28;20288;-82
2023/08/15 11:14:17;;;;;;;6.20;3.28;;;28.70;99.90;;;;;;5111960;28;20300;-80
2023/08/15 11:16:46;;;;;;;4.85;2.90;;;28.80;99.90;;;;;;5081501;28;20199;-82
2023/08/15 11:19:19;;;;;;;4.90;3.20;;;28.90;99.90;;;;;;5100453;28;20269;-82
2023/08/15 11:21:47;;;;;;;6.20;3.22;;;28.60;99.90;;;;;;5108422;28;20245;-80
2023/08/15 11:24:15;;;;;;;5.72;3.60;;;28.30;99.90;;;;;;5100030;28;20214;-82
2023/08/15 11:26:42;;;;;;;4.97;3.60;;;28.10;99.90;;;;;;5110205;28;20215;-82
2023/08/15 11:29:10;;;;;;;6.45;3.80;;;27.90;99.90;;;;;;5105779;28;20260;-82
2023/08/15 11:31:38;;;;;;;5.65;4.10;;;27.80;99.90;;;;;;5091051;28;20214;-80
2023/08/15 11:34:06;;;;;;;8.23;4.20;;;27.90;99.90;;;;;;5106991;28;20214;-80
2023/08/15 11:36:33;;;;;;;7.82;4.53;;;27.70;99.90;;;;;;5101946;28;20204;-79
2023/08/15 11:39:00;;;;;;;9.75;4.40;;;27.50;99.90;;;;;;5107983;28;20207;-80
2023/08/15 11:41:27;;;;;;;10.07;3.97;;;27.20;99.90;;;;;;5101245;28;20326;-80
2023/08/15 11:43:54;;;;;;;10.32;4.63;;;27.00;99.90;;;;;;5108472;28;20291;-82
2023/08/15 11:46:21;;;;;;;9.43;4.40;;;27.00;99.90;;;;;;5097009;28;20200;-80
2023/08/15 11:48:48;;;;;;;6.70;4.60;;;27.10;99.90;;;;;;5083025;28;20195;-81
2023/08/15 11:51:20;;;;;;;6.90;4.15;;;27.30;99.90;;;;;;5109667;28;20200;-81
2023/08/15 11:53:51;;;;;;;6.40;4.10;;;27.10;99.90;;;;;;5108800;28;20206;-79
2023/08/15 11:56:18;;;;;;;7.95;4.53;;;27.40;99.90;;;;;;5092679;28;20277;-82
2023/08/15 11:58:45;;;;;;;6.28;4.20;;;27.40;99.90;;;;;;5100563;28;20195;-80
2023/08/15 12:01:13;;;;;;;7.28;4.35;;;27.40;99.90;;;;;;5090127;28;20662;-80
2023/08/15 12:03:40;;;;;;;8.07;4.40;;;27.50;99.90;;;;;;5098825;28;20227;-80
2023/08/15 12:06:10;;;;;;;5.57;4.00;;;27.40;99.90;;;;;;5107605;28;20252;-81
2023/08/15 12:08:41;;;;;;;4.55;3.63;;;27.40;99.90;;;;;;5089527;28;20203;-81
2023/08/15 12:11:10;;;;;;;5.22;3.15;;;27.40;99.90;;;;;;5089333;28;20245;-78
2023/08/15 12:13:39;;;;;;;8.05;3.60;;;27.60;99.90;;;;;;5111908;28;20195;-80
2023/08/15 12:16:08;;;;;;;4.53;3.10;;;27.60;99.90;;;;;;5115263;27;20272;-80
2023/08/15 12:18:36;;;;;;;5.63;3.50;;;27.60;99.90;;;;;;5105053;28;20215;-80
2023/08/15 12:21:04;;;;;;;5.25;3.20;;;27.80;99.90;;;;;;5104898;27;20286;-81
2023/08/15 12:23:34;;;;;;;6.80;3.13;;;27.80;99.90;;;;;;5111282;28;20317;-80
2023/08/15 12:26:01;;;;;;;6.57;2.85;;;27.90;99.90;;;;;;5112412;28;20201;-81
2023/08/15 12:28:28;;;;;;;6.20;2.80;;;27.90;99.90;;;;;;5101191;28;20290;-79
2023/08/15 12:30:55;;;;;;;5.55;3.17;;;28.00;99.90;;;;;;5114255;27;20753;-82
2023/08/15 12:33:22;;;;;;;5.03;2.80;;;27.80;99.90;;;;;;5104443;28;20203;-80
2023/08/15 12:36:06;;;;;;;6.13;2.42;;;27.80;99.90;;;;;;5110950;28;20544;-81
2023/08/15 12:38:33;;;;;;;5.88;3.00;;;27.70;99.90;;;;;;5107174;28;20199;-82
2023/08/15 12:41:01;;;;;;;6.78;3.00;;;27.80;99.90;;;;;;5113360;28;20252;-80
2023/08/15 12:43:27;;;;;;;4.70;2.65;;;27.80;99.90;;;;;;5100228;28;20219;-79
2023/08/15 12:45:54;;;;;;;6.65;3.20;;;27.80;99.90;;;;;;5108506;28;20202;-82
2023/08/15 12:48:21;;;;;;;4.72;3.20;;;27.70;99.90;;;;;;5109765;28;20283;-77
2023/08/15 12:50:49;;;;;;;9.88;3.42;;;27.70;99.90;;;;;;5101979;28;20256;-82
2023/08/15 12:53:15;;;;;;;6.95;3.38;;;27.70;99.90;;;;;;5110158;28;20286;-78